sensor_id;sensor_type;location;lat;lon;timestamp;P1;durP1;ratioP1;P2;durP2;ratioP2
76439;SDS011;65274;44.982;20.060;2023-05-10T00:00:33;7.55;;;5.00;;
76439;SDS011;65274;44.982;20.060;2023-05-10T00:02:59;8.75;;;6.05;;
76439;SDS011;65274;44.982;20.060;2023-05-10T00:05:25;7.97;;;5.35;;
76439;SDS011;65274;44.982;20.060;2023-05-10T00:07:51;7.78;;;5.88;;
76439;SDS011;65274;44.982;20.060;2023-05-10T00:10:17;8.13;;;5.90;;
76439;SDS011;65274;44.982;20.060;2023-05-10T00:12:43;9.40;;;6.20;;
76439;SDS011;65274;44.982;20.060;2023-05-10T00:15:10;5.90;;;4.97;;
76439;SDS011;65274;44.982;20.060;2023-05-10T00:17:36;7.78;;;5.75;;
76439;SDS011;65274;44.982;20.060;2023-05-10T00:20:02;8.98;;;5.40;;
76439;SDS011;65274;44.982;20.060;2023-05-10T00:22:30;8.23;;;6.15;;
76439;SDS011;65274;44.982;20.060;2023-05-10T00:24:56;8.45;;;5.88;;
76439;SDS011;65274;44.982;20.060;2023-05-10T00:27:22;7.63;;;5.22;;
76439;SDS011;65274;44.982;20.060;2023-05-10T00:29:54;12.40;;;5.78;;
76439;SDS011;65274;44.982;20.060;2023-05-10T00:32:25;9.60;;;5.35;;
76439;SDS011;65274;44.982;20.060;2023-05-10T00:34:56;7.70;;;5.70;;
76439;SDS011;65274;44.982;20.060;2023-05-10T00:37:22;13.18;;;5.35;;
76439;SDS011;65274;44.982;20.060;2023-05-10T00:39:48;7.50;;;5.57;;
76439;SDS011;65274;44.982;20.060;2023-05-10T00:42:15;8.48;;;6.40;;
76439;SDS011;65274;44.982;20.060;2023-05-10T00:44:41;9.38;;;5.10;;
76439;SDS011;65274;44.982;20.060;2023-05-10T00:47:07;8.25;;;6.05;;
76439;SDS011;65274;44.982;20.060;2023-05-10T00:49:34;9.35;;;6.47;;
76439;SDS011;65274;44.982;20.060;2023-05-10T00:52:00;8.10;;;5.88;;
76439;SDS011;65274;44.982;20.060;2023-05-10T00:54:27;8.07;;;5.47;;
76439;SDS011;65274;44.982;20.060;2023-05-10T00:56:53;7.03;;;5.53;;
76439;SDS011;65274;44.982;20.060;2023-05-10T00:59:19;11.27;;;6.03;;
76439;SDS011;65274;44.982;20.060;2023-05-10T01:01:46;7.10;;;5.25;;
76439;SDS011;65274;44.982;20.060;2023-05-10T01:04:12;9.15;;;5.90;;
76439;SDS011;65274;44.982;20.060;2023-05-10T01:06:39;6.68;;;5.43;;
76439;SDS011;65274;44.982;20.060;2023-05-10T01:09:05;6.68;;;5.50;;
76439;SDS011;65274;44.982;20.060;2023-05-10T01:11:35;7.95;;;5.45;;
76439;SDS011;65274;44.982;20.060;2023-05-10T01:14:02;9.40;;;6.15;;
76439;SDS011;65274;44.982;20.060;2023-05-10T01:16:29;7.40;;;5.80;;
76439;SDS011;65274;44.982;20.060;2023-05-10T01:18:55;9.98;;;6.10;;
76439;SDS011;65274;44.982;20.060;2023-05-10T01:29:03;8.70;;;6.40;;
76439;SDS011;65274;44.982;20.060;2023-05-10T01:31:40;9.98;;;6.60;;
76439;SDS011;65274;44.982;20.060;2023-05-10T01:34:16;8.05;;;6.22;;
76439;SDS011;65274;44.982;20.060;2023-05-10T01:37:27;9.05;;;5.72;;
76439;SDS011;65274;44.982;20.060;2023-05-10T01:39:32;9.80;;;6.68;;
76439;SDS011;65274;44.982;20.060;2023-05-10T01:42:09;8.85;;;6.43;;
76439;SDS011;65274;44.982;20.060;2023-05-10T01:47:12;7.80;;;6.25;;
76439;SDS011;65274;44.982;20.060;2023-05-10T01:49:47;8.00;;;5.75;;
76439;SDS011;65274;44.982;20.060;2023-05-10T01:52:15;8.27;;;6.38;;
76439;SDS011;65274;44.982;20.060;2023-05-10T01:55:00;9.55;;;6.00;;
76439;SDS011;65274;44.982;20.060;2023-05-10T01:57:28;10.23;;;6.00;;
76439;SDS011;65274;44.982;20.060;2023-05-10T01:59:58;9.68;;;6.25;;
76439;SDS011;65274;44.982;20.060;2023-05-10T02:02:25;6.90;;;5.57;;
76439;SDS011;65274;44.982;20.060;2023-05-10T02:04:53;8.68;;;6.32;;
76439;SDS011;65274;44.982;20.060;2023-05-10T02:07:20;6.80;;;5.40;;
76439;SDS011;65274;44.982;20.060;2023-05-10T02:09:47;9.98;;;6.78;;
76439;SDS011;65274;44.982;20.060;2023-05-10T02:12:13;7.68;;;5.90;;
76439;SDS011;65274;44.982;20.060;2023-05-10T02:14:40;8.45;;;6.18;;
76439;SDS011;65274;44.982;20.060;2023-05-10T02:17:07;8.05;;;5.43;;
76439;SDS011;65274;44.982;20.060;2023-05-10T02:19:35;9.02;;;5.38;;
76439;SDS011;65274;44.982;20.060;2023-05-10T02:22:02;9.15;;;5.70;;
76439;SDS011;65274;44.982;20.060;2023-05-10T02:24:29;9.25;;;5.63;;
76439;SDS011;65274;44.982;20.060;2023-05-10T02:26:55;7.15;;;5.95;;
76439;SDS011;65274;44.982;20.060;2023-05-10T02:29:22;8.73;;;6.05;;
76439;SDS011;65274;44.982;20.060;2023-05-10T02:31:49;8.63;;;6.05;;
76439;SDS011;65274;44.982;20.060;2023-05-10T02:34:19;9.02;;;6.55;;
76439;SDS011;65274;44.982;20.060;2023-05-10T02:36:45;8.63;;;5.40;;
76439;SDS011;65274;44.982;20.060;2023-05-10T02:39:12;8.48;;;6.47;;
76439;SDS011;65274;44.982;20.060;2023-05-10T02:41:40;10.65;;;6.45;;
76439;SDS011;65274;44.982;20.060;2023-05-10T02:44:06;7.85;;;5.53;;
76439;SDS011;65274;44.982;20.060;2023-05-10T02:46:34;8.75;;;5.68;;
76439;SDS011;65274;44.982;20.060;2023-05-10T02:49:00;6.65;;;5.55;;
76439;SDS011;65274;44.982;20.060;2023-05-10T02:51:28;9.57;;;6.32;;
76439;SDS011;65274;44.982;20.060;2023-05-10T02:53:56;7.00;;;5.25;;
76439;SDS011;65274;44.982;20.060;2023-05-10T02:56:33;8.27;;;5.57;;
76439;SDS011;65274;44.982;20.060;2023-05-10T02:59:00;12.00;;;5.90;;
76439;SDS011;65274;44.982;20.060;2023-05-10T03:01:26;6.85;;;6.13;;
76439;SDS011;65274;44.982;20.060;2023-05-10T03:03:52;11.52;;;5.97;;
76439;SDS011;65274;44.982;20.060;2023-05-10T03:06:18;7.95;;;5.68;;
76439;SDS011;65274;44.982;20.060;2023-05-10T03:08:44;6.80;;;5.50;;
76439;SDS011;65274;44.982;20.060;2023-05-10T03:16:15;9.63;;;7.10;;
76439;SDS011;65274;44.982;20.060;2023-05-10T03:18:50;6.88;;;5.50;;
76439;SDS011;65274;44.982;20.060;2023-05-10T03:21:19;8.25;;;5.35;;
76439;SDS011;65274;44.982;20.060;2023-05-10T03:23:50;8.40;;;5.38;;
76439;SDS011;65274;44.982;20.060;2023-05-10T03:26:17;11.35;;;6.32;;
76439;SDS011;65274;44.982;20.060;2023-05-10T03:28:47;9.15;;;6.10;;
76439;SDS011;65274;44.982;20.060;2023-05-10T03:31:13;9.18;;;6.30;;
76439;SDS011;65274;44.982;20.060;2023-05-10T03:33:46;10.85;;;6.00;;
76439;SDS011;65274;44.982;20.060;2023-05-10T03:36:13;6.70;;;5.97;;
76439;SDS011;65274;44.982;20.060;2023-05-10T03:38:39;7.25;;;6.13;;
76439;SDS011;65274;44.982;20.060;2023-05-10T03:41:05;6.07;;;5.18;;
76439;SDS011;65274;44.982;20.060;2023-05-10T03:43:31;7.40;;;5.93;;
76439;SDS011;65274;44.982;20.060;2023-05-10T03:45:57;5.85;;;5.18;;
76439;SDS011;65274;44.982;20.060;2023-05-10T03:48:23;9.55;;;6.22;;
76439;SDS011;65274;44.982;20.060;2023-05-10T03:50:49;8.38;;;5.88;;
76439;SDS011;65274;44.982;20.060;2023-05-10T03:53:15;8.30;;;5.78;;
76439;SDS011;65274;44.982;20.060;2023-05-10T03:55:45;9.02;;;5.97;;
76439;SDS011;65274;44.982;20.060;2023-05-10T03:58:16;7.72;;;6.25;;
76439;SDS011;65274;44.982;20.060;2023-05-10T04:00:51;7.75;;;5.80;;
76439;SDS011;65274;44.982;20.060;2023-05-10T04:03:22;10.00;;;5.80;;
76439;SDS011;65274;44.982;20.060;2023-05-10T04:05:57;8.15;;;5.47;;
76439;SDS011;65274;44.982;20.060;2023-05-10T04:08:24;8.73;;;5.60;;
76439;SDS011;65274;44.982;20.060;2023-05-10T04:10:50;9.73;;;5.70;;
76439;SDS011;65274;44.982;20.060;2023-05-10T04:13:16;6.82;;;5.97;;
76439;SDS011;65274;44.982;20.060;2023-05-10T04:15:42;6.43;;;5.85;;
76439;SDS011;65274;44.982;20.060;2023-05-10T04:18:08;7.90;;;5.95;;
76439;SDS011;65274;44.982;20.060;2023-05-10T04:20:35;6.20;;;5.40;;
76439;SDS011;65274;44.982;20.060;2023-05-10T04:23:01;7.65;;;5.90;;
76439;SDS011;65274;44.982;20.060;2023-05-10T04:25:27;6.55;;;5.85;;
76439;SDS011;65274;44.982;20.060;2023-05-10T04:27:53;6.80;;;5.53;;
76439;SDS011;65274;44.982;20.060;2023-05-10T04:30:19;7.10;;;6.32;;
76439;SDS011;65274;44.982;20.060;2023-05-10T04:32:45;7.72;;;6.10;;
76439;SDS011;65274;44.982;20.060;2023-05-10T04:35:11;6.13;;;5.53;;
76439;SDS011;65274;44.982;20.060;2023-05-10T04:37:37;10.02;;;5.57;;
76439;SDS011;65274;44.982;20.060;2023-05-10T04:40:03;7.10;;;5.18;;
76439;SDS011;65274;44.982;20.060;2023-05-10T04:42:30;8.02;;;6.13;;
76439;SDS011;65274;44.982;20.060;2023-05-10T04:44:56;9.82;;;4.90;;
76439;SDS011;65274;44.982;20.060;2023-05-10T04:47:22;7.82;;;5.60;;
76439;SDS011;65274;44.982;20.060;2023-05-10T04:49:48;8.23;;;5.97;;
76439;SDS011;65274;44.982;20.060;2023-05-10T04:52:14;14.55;;;6.13;;
76439;SDS011;65274;44.982;20.060;2023-05-10T04:54:42;6.88;;;5.50;;
76439;SDS011;65274;44.982;20.060;2023-05-10T04:57:08;9.20;;;6.68;;
76439;SDS011;65274;44.982;20.060;2023-05-10T04:59:35;7.15;;;5.57;;
76439;SDS011;65274;44.982;20.060;2023-05-10T05:02:02;8.55;;;6.10;;
76439;SDS011;65274;44.982;20.060;2023-05-10T05:04:29;8.75;;;5.97;;
76439;SDS011;65274;44.982;20.060;2023-05-10T05:06:56;7.50;;;5.75;;
76439;SDS011;65274;44.982;20.060;2023-05-10T05:09:22;7.78;;;5.65;;
76439;SDS011;65274;44.982;20.060;2023-05-10T05:11:48;12.00;;;6.18;;
76439;SDS011;65274;44.982;20.060;2023-05-10T05:14:14;9.52;;;6.45;;
76439;SDS011;65274;44.982;20.060;2023-05-10T05:16:40;8.15;;;5.65;;
76439;SDS011;65274;44.982;20.060;2023-05-10T05:19:06;7.57;;;6.20;;
76439;SDS011;65274;44.982;20.060;2023-05-10T05:21:32;7.35;;;6.63;;
76439;SDS011;65274;44.982;20.060;2023-05-10T05:23:58;8.68;;;5.70;;
76439;SDS011;65274;44.982;20.060;2023-05-10T05:26:24;7.78;;;6.85;;
76439;SDS011;65274;44.982;20.060;2023-05-10T05:28:51;7.82;;;7.00;;
76439;SDS011;65274;44.982;20.060;2023-05-10T05:31:19;9.45;;;6.57;;
76439;SDS011;65274;44.982;20.060;2023-05-10T05:33:45;11.65;;;7.10;;
76439;SDS011;65274;44.982;20.060;2023-05-10T05:36:11;10.50;;;6.07;;
76439;SDS011;65274;44.982;20.060;2023-05-10T05:38:37;8.90;;;6.30;;
76439;SDS011;65274;44.982;20.060;2023-05-10T05:41:04;7.18;;;6.13;;
76439;SDS011;65274;44.982;20.060;2023-05-10T05:43:30;10.43;;;6.75;;
76439;SDS011;65274;44.982;20.060;2023-05-10T05:45:56;23.30;;;6.85;;
76439;SDS011;65274;44.982;20.060;2023-05-10T05:48:22;7.18;;;5.50;;
76439;SDS011;65274;44.982;20.060;2023-05-10T05:50:49;8.00;;;5.68;;
76439;SDS011;65274;44.982;20.060;2023-05-10T05:53:15;8.43;;;5.22;;
76439;SDS011;65274;44.982;20.060;2023-05-10T05:55:50;7.07;;;5.90;;
76439;SDS011;65274;44.982;20.060;2023-05-10T05:58:16;9.80;;;7.10;;
76439;SDS011;65274;44.982;20.060;2023-05-10T06:00:42;9.00;;;6.28;;
76439;SDS011;65274;44.982;20.060;2023-05-10T06:03:08;9.95;;;6.45;;
76439;SDS011;65274;44.982;20.060;2023-05-10T06:05:35;8.55;;;5.90;;
76439;SDS011;65274;44.982;20.060;2023-05-10T06:08:01;8.85;;;6.40;;
76439;SDS011;65274;44.982;20.060;2023-05-10T06:10:27;8.73;;;6.45;;
76439;SDS011;65274;44.982;20.060;2023-05-10T06:12:53;8.25;;;6.63;;
76439;SDS011;65274;44.982;20.060;2023-05-10T06:15:19;7.72;;;5.95;;
76439;SDS011;65274;44.982;20.060;2023-05-10T06:17:45;7.20;;;5.47;;
76439;SDS011;65274;44.982;20.060;2023-05-10T06:22:40;9.00;;;6.22;;
76439;SDS011;65274;44.982;20.060;2023-05-10T06:25:06;7.75;;;6.15;;
76439;SDS011;65274;44.982;20.060;2023-05-10T06:27:32;9.82;;;6.30;;
76439;SDS011;65274;44.982;20.060;2023-05-10T06:29:58;12.65;;;6.00;;
76439;SDS011;65274;44.982;20.060;2023-05-10T06:32:24;8.23;;;5.45;;
76439;SDS011;65274;44.982;20.060;2023-05-10T06:34:50;7.53;;;5.10;;
76439;SDS011;65274;44.982;20.060;2023-05-10T06:37:17;7.05;;;4.55;;
76439;SDS011;65274;44.982;20.060;2023-05-10T06:39:43;6.22;;;4.80;;
76439;SDS011;65274;44.982;20.060;2023-05-10T06:42:09;7.10;;;4.45;;
76439;SDS011;65274;44.982;20.060;2023-05-10T06:44:35;5.28;;;4.28;;
76439;SDS011;65274;44.982;20.060;2023-05-10T06:47:01;5.03;;;3.97;;
76439;SDS011;65274;44.982;20.060;2023-05-10T06:49:27;6.18;;;4.47;;
76439;SDS011;65274;44.982;20.060;2023-05-10T06:51:55;8.63;;;4.97;;
76439;SDS011;65274;44.982;20.060;2023-05-10T06:54:21;5.15;;;4.55;;
76439;SDS011;65274;44.982;20.060;2023-05-10T06:56:48;6.82;;;5.28;;
76439;SDS011;65274;44.982;20.060;2023-05-10T06:59:14;7.40;;;5.43;;
76439;SDS011;65274;44.982;20.060;2023-05-10T07:01:41;5.80;;;4.83;;
76439;SDS011;65274;44.982;20.060;2023-05-10T07:04:07;9.15;;;6.57;;
76439;SDS011;65274;44.982;20.060;2023-05-10T07:06:33;7.45;;;5.10;;
76439;SDS011;65274;44.982;20.060;2023-05-10T07:09:00;5.03;;;4.15;;
76439;SDS011;65274;44.982;20.060;2023-05-10T07:11:26;5.55;;;4.25;;
76439;SDS011;65274;44.982;20.060;2023-05-10T07:13:52;12.73;;;5.75;;
76439;SDS011;65274;44.982;20.060;2023-05-10T07:16:18;7.00;;;5.63;;
76439;SDS011;65274;44.982;20.060;2023-05-10T07:18:44;10.13;;;5.30;;
76439;SDS011;65274;44.982;20.060;2023-05-10T07:21:10;5.13;;;3.70;;
76439;SDS011;65274;44.982;20.060;2023-05-10T07:23:36;9.15;;;4.80;;
76439;SDS011;65274;44.982;20.060;2023-05-10T07:26:02;5.95;;;4.18;;
76439;SDS011;65274;44.982;20.060;2023-05-10T07:28:28;7.03;;;4.38;;
76439;SDS011;65274;44.982;20.060;2023-05-10T07:30:54;6.32;;;3.97;;
76439;SDS011;65274;44.982;20.060;2023-05-10T07:33:20;4.30;;;3.17;;
76439;SDS011;65274;44.982;20.060;2023-05-10T07:35:47;6.07;;;4.25;;
76439;SDS011;65274;44.982;20.060;2023-05-10T07:38:13;3.22;;;2.92;;
76439;SDS011;65274;44.982;20.060;2023-05-10T07:40:39;3.33;;;3.03;;
76439;SDS011;65274;44.982;20.060;2023-05-10T07:43:05;6.85;;;3.90;;
76439;SDS011;65274;44.982;20.060;2023-05-10T07:45:32;6.13;;;4.15;;
76439;SDS011;65274;44.982;20.060;2023-05-10T07:48:06;5.00;;;3.83;;
76439;SDS011;65274;44.982;20.060;2023-05-10T07:50:37;6.20;;;3.38;;
76439;SDS011;65274;44.982;20.060;2023-05-10T07:53:03;4.05;;;3.58;;
76439;SDS011;65274;44.982;20.060;2023-05-10T07:55:29;4.75;;;3.65;;
76439;SDS011;65274;44.982;20.060;2023-05-10T07:57:55;5.55;;;3.85;;
76439;SDS011;65274;44.982;20.060;2023-05-10T08:00:22;6.72;;;4.57;;
76439;SDS011;65274;44.982;20.060;2023-05-10T08:02:48;6.25;;;4.45;;
76439;SDS011;65274;44.982;20.060;2023-05-10T08:05:14;5.93;;;3.65;;
76439;SDS011;65274;44.982;20.060;2023-05-10T08:07:40;6.22;;;4.90;;
76439;SDS011;65274;44.982;20.060;2023-05-10T08:10:07;4.30;;;3.90;;
76439;SDS011;65274;44.982;20.060;2023-05-10T08:12:33;5.55;;;5.00;;
76439;SDS011;65274;44.982;20.060;2023-05-10T08:14:59;5.35;;;4.35;;
76439;SDS011;65274;44.982;20.060;2023-05-10T08:17:25;4.63;;;3.85;;
76439;SDS011;65274;44.982;20.060;2023-05-10T08:19:52;5.82;;;3.50;;
76439;SDS011;65274;44.982;20.060;2023-05-10T08:22:18;4.70;;;3.83;;
76439;SDS011;65274;44.982;20.060;2023-05-10T08:24:44;4.68;;;3.85;;
76439;SDS011;65274;44.982;20.060;2023-05-10T08:27:10;5.15;;;4.28;;
76439;SDS011;65274;44.982;20.060;2023-05-10T08:29:36;5.05;;;4.38;;
76439;SDS011;65274;44.982;20.060;2023-05-10T08:32:03;4.43;;;3.72;;
76439;SDS011;65274;44.982;20.060;2023-05-10T08:34:29;6.20;;;4.95;;
76439;SDS011;65274;44.982;20.060;2023-05-10T08:36:56;6.80;;;4.28;;
76439;SDS011;65274;44.982;20.060;2023-05-10T08:39:22;9.50;;;4.60;;
76439;SDS011;65274;44.982;20.060;2023-05-10T08:41:48;6.05;;;4.05;;
76439;SDS011;65274;44.982;20.060;2023-05-10T08:44:16;7.78;;;4.75;;
76439;SDS011;65274;44.982;20.060;2023-05-10T08:46:44;5.93;;;5.25;;
76439;SDS011;65274;44.982;20.060;2023-05-10T08:49:13;6.45;;;4.55;;
76439;SDS011;65274;44.982;20.060;2023-05-10T08:51:43;5.10;;;4.60;;
76439;SDS011;65274;44.982;20.060;2023-05-10T08:54:12;7.38;;;4.97;;
76439;SDS011;65274;44.982;20.060;2023-05-10T08:56:39;6.50;;;4.50;;
76439;SDS011;65274;44.982;20.060;2023-05-10T08:59:05;7.13;;;4.75;;
76439;SDS011;65274;44.982;20.060;2023-05-10T09:01:31;5.72;;;4.47;;
76439;SDS011;65274;44.982;20.060;2023-05-10T09:03:58;6.70;;;5.50;;
76439;SDS011;65274;44.982;20.060;2023-05-10T09:06:24;7.38;;;5.10;;
76439;SDS011;65274;44.982;20.060;2023-05-10T09:08:51;8.18;;;4.85;;
76439;SDS011;65274;44.982;20.060;2023-05-10T09:11:17;4.95;;;3.50;;
76439;SDS011;65274;44.982;20.060;2023-05-10T09:13:43;5.88;;;4.80;;
76439;SDS011;65274;44.982;20.060;2023-05-10T09:16:10;5.40;;;4.15;;
76439;SDS011;65274;44.982;20.060;2023-05-10T09:18:36;6.85;;;3.22;;
76439;SDS011;65274;44.982;20.060;2023-05-10T09:21:02;4.78;;;3.53;;
76439;SDS011;65274;44.982;20.060;2023-05-10T09:23:28;4.28;;;3.03;;
76439;SDS011;65274;44.982;20.060;2023-05-10T09:26:06;4.20;;;3.45;;
76439;SDS011;65274;44.982;20.060;2023-05-10T09:28:33;4.18;;;3.25;;
76439;SDS011;65274;44.982;20.060;2023-05-10T09:31:00;4.75;;;3.95;;
76439;SDS011;65274;44.982;20.060;2023-05-10T09:33:26;5.53;;;3.85;;
76439;SDS011;65274;44.982;20.060;2023-05-10T09:35:52;4.03;;;3.00;;
76439;SDS011;65274;44.982;20.060;2023-05-10T09:38:18;2.65;;;2.20;;
76439;SDS011;65274;44.982;20.060;2023-05-10T09:40:50;2.97;;;2.67;;
76439;SDS011;65274;44.982;20.060;2023-05-10T09:43:20;4.47;;;3.58;;
76439;SDS011;65274;44.982;20.060;2023-05-10T09:45:47;3.25;;;2.95;;
76439;SDS011;65274;44.982;20.060;2023-05-10T09:48:16;4.25;;;2.90;;
76439;SDS011;65274;44.982;20.060;2023-05-10T09:50:42;3.05;;;2.83;;
76439;SDS011;65274;44.982;20.060;2023-05-10T09:53:08;5.03;;;2.95;;
76439;SDS011;65274;44.982;20.060;2023-05-10T09:55:42;5.72;;;3.47;;
76439;SDS011;65274;44.982;20.060;2023-05-10T09:58:14;3.88;;;3.40;;
76439;SDS011;65274;44.982;20.060;2023-05-10T10:00:41;6.65;;;3.38;;
76439;SDS011;65274;44.982;20.060;2023-05-10T10:03:19;4.45;;;3.35;;
76439;SDS011;65274;44.982;20.060;2023-05-10T10:05:46;3.30;;;3.05;;
76439;SDS011;65274;44.982;20.060;2023-05-10T10:08:12;2.38;;;2.17;;
76439;SDS011;65274;44.982;20.060;2023-05-10T10:10:39;4.93;;;2.63;;
76439;SDS011;65274;44.982;20.060;2023-05-10T10:13:05;4.53;;;3.38;;
76439;SDS011;65274;44.982;20.060;2023-05-10T10:15:32;2.35;;;2.15;;
76439;SDS011;65274;44.982;20.060;2023-05-10T10:17:58;2.88;;;2.42;;
76439;SDS011;65274;44.982;20.060;2023-05-10T10:20:25;3.65;;;2.30;;
76439;SDS011;65274;44.982;20.060;2023-05-10T10:22:52;3.65;;;2.10;;
76439;SDS011;65274;44.982;20.060;2023-05-10T10:25:18;3.50;;;2.50;;
76439;SDS011;65274;44.982;20.060;2023-05-10T10:35:29;3.40;;;2.50;;
76439;SDS011;65274;44.982;20.060;2023-05-10T10:37:55;4.17;;;2.60;;
76439;SDS011;65274;44.982;20.060;2023-05-10T10:40:34;2.10;;;2.00;;
76439;SDS011;65274;44.982;20.060;2023-05-10T10:45:48;2.08;;;1.83;;
76439;SDS011;65274;44.982;20.060;2023-05-10T10:48:31;3.30;;;2.55;;
76439;SDS011;65274;44.982;20.060;2023-05-10T10:50:57;4.22;;;2.47;;
76439;SDS011;65274;44.982;20.060;2023-05-10T10:53:25;4.90;;;2.28;;
76439;SDS011;65274;44.982;20.060;2023-05-10T10:56:01;7.95;;;2.42;;
76439;SDS011;65274;44.982;20.060;2023-05-10T10:58:28;2.20;;;2.03;;
76439;SDS011;65274;44.982;20.060;2023-05-10T11:01:14;8.30;;;4.15;;
76439;SDS011;65274;44.982;20.060;2023-05-10T11:03:41;3.22;;;2.30;;
76439;SDS011;65274;44.982;20.060;2023-05-10T11:06:30;3.03;;;2.72;;
76439;SDS011;65274;44.982;20.060;2023-05-10T11:09:04;3.30;;;2.35;;
76439;SDS011;65274;44.982;20.060;2023-05-10T11:11:31;5.43;;;2.40;;
76439;SDS011;65274;44.982;20.060;2023-05-10T11:14:02;3.90;;;3.05;;
76439;SDS011;65274;44.982;20.060;2023-05-10T11:16:29;3.10;;;2.42;;
76439;SDS011;65274;44.982;20.060;2023-05-10T11:19:10;7.30;;;2.50;;
76439;SDS011;65274;44.982;20.060;2023-05-10T11:21:50;2.28;;;2.08;;
76439;SDS011;65274;44.982;20.060;2023-05-10T11:24:17;3.88;;;2.70;;
76439;SDS011;65274;44.982;20.060;2023-05-10T11:26:43;2.00;;;1.90;;
76439;SDS011;65274;44.982;20.060;2023-05-10T11:29:09;2.88;;;2.25;;
76439;SDS011;65274;44.982;20.060;2023-05-10T11:31:41;2.83;;;2.50;;
76439;SDS011;65274;44.982;20.060;2023-05-10T11:34:07;2.38;;;2.13;;
76439;SDS011;65274;44.982;20.060;2023-05-10T11:36:36;2.30;;;2.10;;
76439;SDS011;65274;44.982;20.060;2023-05-10T11:39:02;2.83;;;2.40;;
76439;SDS011;65274;44.982;20.060;2023-05-10T11:41:29;2.75;;;1.88;;
76439;SDS011;65274;44.982;20.060;2023-05-10T11:43:55;2.65;;;2.20;;
76439;SDS011;65274;44.982;20.060;2023-05-10T11:46:23;5.65;;;2.28;;
76439;SDS011;65274;44.982;20.060;2023-05-10T11:48:50;3.03;;;2.72;;
76439;SDS011;65274;44.982;20.060;2023-05-10T11:51:19;3.08;;;2.20;;
76439;SDS011;65274;44.982;20.060;2023-05-10T11:53:46;2.60;;;1.95;;
76439;SDS011;65274;44.982;20.060;2023-05-10T11:56:12;5.57;;;3.17;;
76439;SDS011;65274;44.982;20.060;2023-05-10T11:58:38;2.47;;;1.80;;
76439;SDS011;65274;44.982;20.060;2023-05-10T12:01:05;2.22;;;2.00;;
76439;SDS011;65274;44.982;20.060;2023-05-10T12:03:32;2.60;;;2.33;;
76439;SDS011;65274;44.982;20.060;2023-05-10T12:06:00;3.38;;;1.98;;
76439;SDS011;65274;44.982;20.060;2023-05-10T12:10:53;2.42;;;2.10;;
76439;SDS011;65274;44.982;20.060;2023-05-10T12:13:19;4.97;;;2.55;;
76439;SDS011;65274;44.982;20.060;2023-05-10T12:15:46;4.65;;;2.17;;
76439;SDS011;65274;44.982;20.060;2023-05-10T12:18:12;3.25;;;1.90;;
76439;SDS011;65274;44.982;20.060;2023-05-10T12:20:39;2.92;;;2.30;;
76439;SDS011;65274;44.982;20.060;2023-05-10T12:23:05;7.20;;;1.98;;
76439;SDS011;65274;44.982;20.060;2023-05-10T12:25:38;3.88;;;2.33;;
76439;SDS011;65274;44.982;20.060;2023-05-10T12:28:05;2.60;;;2.38;;
76439;SDS011;65274;44.982;20.060;2023-05-10T12:30:32;3.08;;;1.90;;
76439;SDS011;65274;44.982;20.060;2023-05-10T12:33:02;3.75;;;2.22;;
76439;SDS011;65274;44.982;20.060;2023-05-10T12:35:32;2.30;;;2.10;;
76439;SDS011;65274;44.982;20.060;2023-05-10T12:37:59;2.65;;;1.92;;
76439;SDS011;65274;44.982;20.060;2023-05-10T12:40:25;2.85;;;2.53;;
76439;SDS011;65274;44.982;20.060;2023-05-10T12:42:51;5.07;;;2.42;;
76439;SDS011;65274;44.982;20.060;2023-05-10T12:45:17;4.35;;;2.92;;
76439;SDS011;65274;44.982;20.060;2023-05-10T12:47:44;4.35;;;2.40;;
76439;SDS011;65274;44.982;20.060;2023-05-10T12:50:10;1.90;;;1.80;;
76439;SDS011;65274;44.982;20.060;2023-05-10T12:52:36;3.35;;;2.65;;
76439;SDS011;65274;44.982;20.060;2023-05-10T12:55:02;2.15;;;2.00;;
76439;SDS011;65274;44.982;20.060;2023-05-10T12:57:28;6.70;;;2.60;;
76439;SDS011;65274;44.982;20.060;2023-05-10T12:59:54;3.67;;;2.28;;
76439;SDS011;65274;44.982;20.060;2023-05-10T13:02:21;4.63;;;2.35;;
76439;SDS011;65274;44.982;20.060;2023-05-10T13:04:48;2.97;;;2.30;;
76439;SDS011;65274;44.982;20.060;2023-05-10T13:07:14;2.60;;;2.20;;
76439;SDS011;65274;44.982;20.060;2023-05-10T13:09:40;2.63;;;2.42;;
76439;SDS011;65274;44.982;20.060;2023-05-10T13:12:06;7.53;;;2.38;;
76439;SDS011;65274;44.982;20.060;2023-05-10T13:14:32;2.28;;;2.00;;
76439;SDS011;65274;44.982;20.060;2023-05-10T13:16:58;2.00;;;1.90;;
76439;SDS011;65274;44.982;20.060;2023-05-10T13:19:25;3.38;;;2.25;;
76439;SDS011;65274;44.982;20.060;2023-05-10T13:21:51;3.17;;;1.98;;
76439;SDS011;65274;44.982;20.060;2023-05-10T13:24:17;2.83;;;1.60;;
76439;SDS011;65274;44.982;20.060;2023-05-10T13:26:44;2.08;;;1.88;;
76439;SDS011;65274;44.982;20.060;2023-05-10T13:29:10;2.85;;;2.22;;
76439;SDS011;65274;44.982;20.060;2023-05-10T13:31:36;2.92;;;2.33;;
76439;SDS011;65274;44.982;20.060;2023-05-10T13:34:03;4.03;;;2.58;;
76439;SDS011;65274;44.982;20.060;2023-05-10T13:36:29;3.03;;;1.90;;
76439;SDS011;65274;44.982;20.060;2023-05-10T13:38:55;4.45;;;1.58;;
76439;SDS011;65274;44.982;20.060;2023-05-10T13:41:21;3.35;;;2.20;;
76439;SDS011;65274;44.982;20.060;2023-05-10T13:43:47;2.38;;;2.13;;
76439;SDS011;65274;44.982;20.060;2023-05-10T13:46:14;2.22;;;2.03;;
76439;SDS011;65274;44.982;20.060;2023-05-10T13:48:40;3.70;;;2.00;;
76439;SDS011;65274;44.982;20.060;2023-05-10T13:51:06;2.22;;;2.03;;
76439;SDS011;65274;44.982;20.060;2023-05-10T13:53:32;3.97;;;2.00;;
76439;SDS011;65274;44.982;20.060;2023-05-10T13:55:58;4.00;;;2.47;;
76439;SDS011;65274;44.982;20.060;2023-05-10T13:58:24;3.22;;;1.85;;
76439;SDS011;65274;44.982;20.060;2023-05-10T14:00:50;1.98;;;1.88;;
76439;SDS011;65274;44.982;20.060;2023-05-10T14:03:16;3.00;;;1.70;;
76439;SDS011;65274;44.982;20.060;2023-05-10T14:05:42;2.13;;;1.80;;
76439;SDS011;65274;44.982;20.060;2023-05-10T14:08:10;4.05;;;1.65;;
76439;SDS011;65274;44.982;20.060;2023-05-10T14:10:38;4.47;;;2.67;;
76439;SDS011;65274;44.982;20.060;2023-05-10T14:13:04;3.83;;;1.90;;
76439;SDS011;65274;44.982;20.060;2023-05-10T14:15:31;2.38;;;2.17;;
76439;SDS011;65274;44.982;20.060;2023-05-10T14:17:57;3.08;;;2.35;;
76439;SDS011;65274;44.982;20.060;2023-05-10T14:20:23;2.55;;;2.15;;
76439;SDS011;65274;44.982;20.060;2023-05-10T14:22:49;2.67;;;1.80;;
76439;SDS011;65274;44.982;20.060;2023-05-10T14:25:15;2.50;;;1.75;;
76439;SDS011;65274;44.982;20.060;2023-05-10T14:27:41;1.70;;;1.60;;
76439;SDS011;65274;44.982;20.060;2023-05-10T14:30:07;2.45;;;2.25;;
76439;SDS011;65274;44.982;20.060;2023-05-10T14:32:34;5.13;;;2.40;;
76439;SDS011;65274;44.982;20.060;2023-05-10T14:35:01;2.88;;;1.83;;
76439;SDS011;65274;44.982;20.060;2023-05-10T14:37:27;2.25;;;2.05;;
76439;SDS011;65274;44.982;20.060;2023-05-10T14:39:53;1.75;;;1.60;;
76439;SDS011;65274;44.982;20.060;2023-05-10T14:42:19;2.72;;;1.95;;
76439;SDS011;65274;44.982;20.060;2023-05-10T14:44:46;2.40;;;2.20;;
76439;SDS011;65274;44.982;20.060;2023-05-10T14:47:12;3.05;;;1.70;;
76439;SDS011;65274;44.982;20.060;2023-05-10T14:49:38;6.25;;;2.83;;
76439;SDS011;65274;44.982;20.060;2023-05-10T14:52:04;2.08;;;1.88;;
76439;SDS011;65274;44.982;20.060;2023-05-10T14:54:30;2.65;;;1.70;;
76439;SDS011;65274;44.982;20.060;2023-05-10T14:56:58;1.45;;;1.35;;
76439;SDS011;65274;44.982;20.060;2023-05-10T14:59:25;4.22;;;1.67;;
76439;SDS011;65274;44.982;20.060;2023-05-10T15:01:51;3.33;;;2.08;;
76439;SDS011;65274;44.982;20.060;2023-05-10T15:04:17;2.95;;;1.50;;